Weather at Fazenda Santa Isabel Airport

Public forecast

Using degrees Celsius for public forecast. Weather courtesy of forecast.io.

Closest aviation weather report (METAR) to Fazenda Santa Isabel Airport

Report is more than 6 hours old.

Closest report is Amapá Airport, 63.7 nm (118.0 km) NNW. Retrieved 2011/10/13 18:00 UTC (10 years ago):

SBAM 131800Z 00000KT 9999 SCT023 31/22 Q1009

Closest aviation forecast (TAF) to Fazenda Santa Isabel Airport

Closest forecast is Alberto Alcolumbre Airport, 80.0 nm (148.1 km) SW. Retrieved 2021/08/02 12:00 UTC (16 minutes ago):

TAF SBMQ 020900Z 0212/0312 29003KT 9999 SCT015 TX33/0216Z TN25/0309Z BECMG 0213/0215 05007KT BKN020 BECMG 0216/0218 08010KT SCT025 FEW030TCU BECMG 0220/0222 05005KT SCT017 BECMG 0305/0307 28003KT SCT015 RMK PGU